Time;durP1;ratioP1;P1;durP2;ratioP2;P2;SDS_P1;SDS_P2;PMS_P1;PMS_P2;Temp;Humidity;BMP_temperature;BMP_pressure;BME280_temperature;BME280_humidity;BME280_pressure;Samples;Min_cycle;Max_cycle;Signal;HPM_P1;HPM_P2
2022/10/24 00:01:40;;;;;;;;;;;24.50;99.90;;;;;;5126317;27;19908;-54
2022/10/24 00:04:06;;;;;;;;;;;24.50;99.90;;;;;;5114299;28;19943;-53
2022/10/24 00:06:32;;;;;;;;;;;24.50;99.90;;;;;;5114251;28;19908;-54
2022/10/24 00:08:58;;;;;;;;;;;24.50;99.90;;;;;;5114290;28;20391;-54
2022/10/24 00:11:25;;;;;;;;;;;24.50;99.90;;;;;;5128902;27;19918;-54
2022/10/24 00:13:51;;;;;;;;;;;24.50;99.90;;;;;;5114069;28;19904;-54
2022/10/24 00:16:16;;;;;;;;;;;24.50;99.90;;;;;;5126581;27;19907;-54
2022/10/24 00:18:42;;;;;;;;;;;24.50;99.90;;;;;;5114580;27;19919;-54
2022/10/24 00:21:08;;;;;;;;;;;24.50;99.90;;;;;;5112689;28;19911;-54
2022/10/24 00:23:34;;;;;;;;;;;24.50;99.90;;;;;;5113644;28;20014;-54
2022/10/24 00:26:02;;;;;;;;;;;24.50;99.90;;;;;;5113903;28;20313;-54
2022/10/24 00:28:32;;;;;;;;;;;24.50;99.90;;;;;;5113880;28;20351;-53
2022/10/24 00:30:57;;;;;;;;;;;24.50;99.90;;;;;;5113848;28;19969;-53
2022/10/24 00:33:23;;;;;;;;;;;24.50;99.90;;;;;;5113851;28;20244;-53
2022/10/24 00:35:49;;;;;;;;;;;24.50;99.90;;;;;;5113950;28;19929;-54
2022/10/24 00:38:14;;;;;;;;;;;24.50;99.90;;;;;;5118054;27;19907;-53
2022/10/24 00:40:41;;;;;;;;;;;24.50;99.90;;;;;;5123604;27;19938;-53
2022/10/24 00:43:25;;;;;;;;;;;24.50;99.90;;;;;;5113678;28;19908;-54
2022/10/24 00:46:08;;;;;;;;;;;24.50;99.90;;;;;;5113542;28;19908;-54
2022/10/24 00:48:39;;;;;;;;;;;24.50;99.90;;;;;;5112778;28;20291;-54
2022/10/24 00:51:06;;;;;;;;;;;24.50;99.90;;;;;;5113446;28;19955;-54
2022/10/24 00:53:34;;;;;;;;;;;24.40;99.90;;;;;;5113493;28;19907;-54
2022/10/24 00:56:01;;;;;;;;;;;24.40;99.90;;;;;;5113291;27;19908;-53
2022/10/24 00:58:28;;;;;;;;;;;24.40;99.90;;;;;;5111999;28;19908;-54
2022/10/24 01:00:54;;;;;;;;;;;24.40;99.90;;;;;;5098995;22;19931;-51
2022/10/24 01:03:20;;;;;;;;;;;24.40;99.90;;;;;;5072607;28;19913;-51
2022/10/24 01:06:06;;;;;;;;;;;24.30;99.90;;;;;;5072770;28;19962;-51
2022/10/24 01:08:31;;;;;;;;;;;24.30;99.90;;;;;;5072369;28;20397;-51
2022/10/24 01:10:57;;;;;;;;;;;24.30;99.90;;;;;;5072603;28;19908;-51
2022/10/24 01:13:22;;;;;;;;;;;24.30;99.90;;;;;;5071174;28;20367;-51
2022/10/24 01:16:03;;;;;;;;;;;24.30;99.90;;;;;;5071172;28;19912;-52
2022/10/24 01:18:35;;;;;;;;;;;24.20;99.90;;;;;;5072466;28;20393;-51
2022/10/24 01:21:06;;;;;;;;;;;24.20;99.90;;;;;;5072381;28;19913;-51
2022/10/24 01:23:32;;;;;;;;;;;24.20;99.90;;;;;;5072285;28;20368;-51
2022/10/24 01:26:10;;;;;;;;;;;24.20;99.90;;;;;;5072143;28;19908;-51
2022/10/24 01:28:47;;;;;;;;;;;24.20;99.90;;;;;;5072291;28;20262;-51
2022/10/24 01:31:21;;;;;;;;;;;24.20;99.90;;;;;;5072466;28;19908;-52
2022/10/24 01:33:50;;;;;;;;;;;24.20;99.90;;;;;;5072400;28;19962;-52
2022/10/24 01:36:19;;;;;;;;;;;24.20;99.90;;;;;;5072433;28;19909;-51
2022/10/24 01:38:45;;;;;;;;;;;24.10;99.90;;;;;;5072325;28;19960;-51
2022/10/24 01:41:22;;;;;;;;;;;24.10;99.90;;;;;;5072595;28;20422;-52
2022/10/24 01:44:06;;;;;;;;;;;24.10;99.90;;;;;;5072201;28;19962;-52
2022/10/24 01:46:34;;;;;;;;;;;24.10;99.90;;;;;;5072091;28;19913;-53
2022/10/24 01:49:20;;;;;;;;;;;24.10;99.90;;;;;;5072214;28;19978;-52
2022/10/24 01:51:47;;;;;;;;;;;24.10;99.90;;;;;;5071115;28;19915;-51
2022/10/24 01:54:14;;;;;;;;;;;24.10;99.90;;;;;;5072253;28;19959;-52
2022/10/24 01:56:39;;;;;;;;;;;24.10;99.90;;;;;;5072193;28;19909;-52
2022/10/24 01:59:06;;;;;;;;;;;24.10;99.90;;;;;;5072166;28;19916;-51
2022/10/24 02:01:32;;;;;;;;;;;24.10;99.90;;;;;;5115101;22;20015;-53
2022/10/24 02:04:00;;;;;;;;;;;24.10;99.90;;;;;;5096422;28;20002;-53
2022/10/24 02:06:30;;;;;;;;;;;24.10;99.90;;;;;;5098984;28;19922;-53
2022/10/24 02:08:59;;;;;;;;;;;24.10;99.90;;;;;;5108675;28;19961;-53
2022/10/24 02:11:24;;;;;;;;;;;24.10;99.90;;;;;;5096060;28;19908;-54
2022/10/24 02:13:54;;;;;;;;;;;24.00;99.90;;;;;;5099347;28;19915;-54
2022/10/24 02:16:20;;;;;;;;;;;24.10;99.90;;;;;;5105447;28;20007;-54
2022/10/24 02:18:47;;;;;;;;;;;24.10;99.90;;;;;;5095910;28;20007;-54
2022/10/24 02:21:18;;;;;;;;;;;24.10;99.90;;;;;;5096038;28;20686;-53
2022/10/24 02:23:48;;;;;;;;;;;24.00;99.90;;;;;;5096256;28;19915;-54
2022/10/24 02:26:20;;;;;;;;;;;24.10;99.90;;;;;;5096016;28;20276;-54
2022/10/24 02:28:46;;;;;;;;;;;24.00;99.90;;;;;;5096246;28;19908;-54
2022/10/24 02:31:16;;;;;;;;;;;24.00;99.90;;;;;;5095847;28;19957;-54
2022/10/24 02:33:43;;;;;;;;;;;24.00;99.90;;;;;;5095917;28;20009;-54
2022/10/24 02:36:10;;;;;;;;;;;24.00;99.90;;;;;;5095742;28;20038;-54
2022/10/24 02:38:37;;;;;;;;;;;24.00;99.90;;;;;;5094125;28;19909;-54
2022/10/24 02:41:04;;;;;;;;;;;24.00;99.90;;;;;;5095715;28;19912;-54
2022/10/24 02:43:31;;;;;;;;;;;24.00;99.90;;;;;;5098662;28;19911;-54
2022/10/24 02:45:57;;;;;;;;;;;24.00;99.90;;;;;;5106487;28;20260;-54
2022/10/24 02:48:26;;;;;;;;;;;23.90;99.90;;;;;;5095363;28;20267;-54
2022/10/24 02:50:51;;;;;;;;;;;23.90;99.90;;;;;;5095480;28;20003;-54
2022/10/24 02:53:19;;;;;;;;;;;23.90;99.90;;;;;;5095453;28;20354;-53
2022/10/24 02:55:44;;;;;;;;;;;23.90;99.90;;;;;;5095367;28;19914;-53
2022/10/24 02:58:10;;;;;;;;;;;23.90;99.90;;;;;;5095316;28;20287;-54
2022/10/24 03:00:35;;;;;;;;;;;23.90;99.90;;;;;;5097136;22;19925;-52
2022/10/24 03:03:01;;;;;;;;;;;23.90;99.90;;;;;;5074753;28;19920;-52
2022/10/24 03:05:27;;;;;;;;;;;23.90;99.90;;;;;;5074911;28;20057;-52
2022/10/24 03:07:52;;;;;;;;;;;23.90;99.90;;;;;;5074904;28;19908;-51
2022/10/24 03:10:18;;;;;;;;;;;23.90;99.90;;;;;;5075168;28;20112;-52
2022/10/24 03:12:43;;;;;;;;;;;23.90;99.90;;;;;;5074245;28;19912;-51
2022/10/24 03:15:09;;;;;;;;;;;23.90;99.90;;;;;;5074844;28;20280;-51
2022/10/24 03:17:35;;;;;;;;;;;23.80;99.90;;;;;;5074837;28;19909;-51
2022/10/24 03:20:00;;;;;;;;;;;23.80;99.90;;;;;;5074328;28;19916;-51
2022/10/24 03:22:26;;;;;;;;;;;23.80;99.90;;;;;;5074625;28;19916;-51
2022/10/24 03:24:51;;;;;;;;;;;23.80;99.90;;;;;;5074729;28;19916;-57
2022/10/24 03:27:17;;;;;;;;;;;23.80;99.90;;;;;;5074465;28;19916;-52
2022/10/24 03:29:42;;;;;;;;;;;23.80;99.90;;;;;;5074589;28;19908;-52
2022/10/24 03:32:08;;;;;;;;;;;23.80;99.90;;;;;;5074349;28;19995;-51
2022/10/24 03:34:34;;;;;;;;;;;23.80;99.90;;;;;;5073101;28;19912;-52
2022/10/24 03:37:00;;;;;;;;;;;23.80;99.90;;;;;;5074404;28;20007;-52
2022/10/24 03:39:25;;;;;;;;;;;23.80;99.90;;;;;;5074175;28;19924;-52
2022/10/24 03:41:51;;;;;;;;;;;23.80;99.90;;;;;;5074449;28;19912;-51
2022/10/24 03:44:16;;;;;;;;;;;23.80;99.90;;;;;;5074322;28;20453;-52
2022/10/24 03:46:42;;;;;;;;;;;23.80;99.90;;;;;;5072826;28;19937;-52
2022/10/24 03:49:07;;;;;;;;;;;23.80;99.90;;;;;;5074032;28;19916;-52
2022/10/24 03:51:33;;;;;;;;;;;23.80;99.90;;;;;;5072824;28;20001;-51
2022/10/24 03:53:58;;;;;;;;;;;23.70;99.90;;;;;;5074007;28;19909;-52
2022/10/24 03:56:24;;;;;;;;;;;23.70;99.90;;;;;;5072657;28;19913;-51
2022/10/24 03:58:50;;;;;;;;;;;23.70;99.90;;;;;;5074023;28;20427;-53
2022/10/24 04:01:17;;;;;;;;;;;23.70;99.90;;;;;;5074536;28;19920;-53
2022/10/24 04:03:44;;;;;;;;;;;23.70;99.90;;;;;;5073896;28;19962;-52
2022/10/24 04:06:10;;;;;;;;;;;23.60;99.90;;;;;;5073748;28;19909;-53
2022/10/24 04:08:36;;;;;;;;;;;23.60;99.90;;;;;;5073843;28;19908;-55
2022/10/24 04:11:01;;;;;;;;;;;23.60;99.90;;;;;;5073812;28;20271;-52
2022/10/24 04:13:27;;;;;;;;;;;23.60;99.90;;;;;;5073372;28;20347;-52
2022/10/24 04:15:53;;;;;;;;;;;23.60;99.90;;;;;;5073807;28;20364;-51
2022/10/24 04:18:18;;;;;;;;;;;23.60;99.90;;;;;;5073586;28;19915;-52
2022/10/24 04:20:44;;;;;;;;;;;23.50;99.90;;;;;;5073218;28;19924;-52
2022/10/24 04:23:10;;;;;;;;;;;23.50;99.90;;;;;;5072685;28;20265;-53
2022/10/24 04:25:35;;;;;;;;;;;23.50;99.90;;;;;;5073292;28;20280;-52
2022/10/24 04:28:01;;;;;;;;;;;23.50;99.90;;;;;;5071897;28;19916;-52
2022/10/24 04:30:28;;;;;;;;;;;23.50;99.90;;;;;;5073366;28;20275;-52
2022/10/24 04:32:55;;;;;;;;;;;23.50;99.90;;;;;;5073462;28;19908;-52
2022/10/24 04:35:21;;;;;;;;;;;23.50;99.90;;;;;;5071981;28;19912;-51
2022/10/24 04:37:46;;;;;;;;;;;23.50;99.90;;;;;;5073121;28;19913;-52
2022/10/24 04:40:12;;;;;;;;;;;23.50;99.90;;;;;;5073012;28;20250;-52
2022/10/24 04:42:37;;;;;;;;;;;23.50;99.90;;;;;;5073014;28;20269;-51
2022/10/24 04:45:03;;;;;;;;;;;23.50;99.90;;;;;;5073124;28;19931;-52
2022/10/24 04:47:29;;;;;;;;;;;23.50;99.90;;;;;;5072943;28;20268;-52
2022/10/24 04:49:54;;;;;;;;;;;23.50;99.90;;;;;;5073171;28;20284;-52
2022/10/24 04:52:20;;;;;;;;;;;23.50;99.90;;;;;;5072809;28;19917;-51
2022/10/24 04:54:46;;;;;;;;;;;23.50;99.90;;;;;;5072745;28;20393;-51
2022/10/24 04:57:11;;;;;;;;;;;23.50;99.90;;;;;;5072844;28;19931;-52
2022/10/24 04:59:37;;;;;;;;;;;23.50;99.90;;;;;;5072361;28;19917;-52
2022/10/24 05:02:03;;;;;;;;;;;23.50;99.90;;;;;;5072711;28;19928;-52
2022/10/24 05:04:28;;;;;;;;;;;23.40;99.90;;;;;;5072719;28;20348;-54
2022/10/24 05:06:54;;;;;;;;;;;23.40;99.90;;;;;;5072889;28;19948;-54
2022/10/24 05:09:19;;;;;;;;;;;23.40;99.90;;;;;;5072588;28;20391;-53
2022/10/24 05:11:45;;;;;;;;;;;23.40;99.90;;;;;;5072590;28;19916;-53
2022/10/24 05:14:11;;;;;;;;;;;23.40;99.90;;;;;;5072557;28;20006;-51
2022/10/24 05:16:36;;;;;;;;;;;23.40;99.90;;;;;;5072580;28;19908;-53
2022/10/24 05:19:02;;;;;;;;;;;23.40;99.90;;;;;;5072384;28;19917;-51
2022/10/24 05:21:27;;;;;;;;;;;23.40;99.90;;;;;;5072635;28;19916;-53
2022/10/24 05:23:53;;;;;;;;;;;23.40;99.90;;;;;;5072789;28;19970;-52
2022/10/24 05:26:19;;;;;;;;;;;23.40;99.90;;;;;;5072304;28;19999;-53
2022/10/24 05:28:44;;;;;;;;;;;23.40;99.90;;;;;;5072438;28;19974;-52
2022/10/24 05:31:10;;;;;;;;;;;23.40;99.90;;;;;;5072348;28;20433;-53
2022/10/24 05:33:35;;;;;;;;;;;23.40;99.90;;;;;;5072429;28;19947;-53
2022/10/24 05:36:01;;;;;;;;;;;23.40;99.90;;;;;;5072137;28;20357;-53
2022/10/24 05:38:26;;;;;;;;;;;23.40;99.90;;;;;;5072540;28;19905;-52
2022/10/24 05:40:52;;;;;;;;;;;23.40;99.90;;;;;;5072183;28;19940;-53
2022/10/24 05:43:18;;;;;;;;;;;23.40;99.90;;;;;;5072242;28;19959;-53
2022/10/24 05:45:46;;;;;;;;;;;23.40;99.90;;;;;;5072213;28;19947;-53
2022/10/24 05:48:11;;;;;;;;;;;23.40;99.90;;;;;;5072122;28;19912;-54
2022/10/24 05:50:37;;;;;;;;;;;23.40;99.90;;;;;;5071908;28;19953;-53
2022/10/24 05:53:03;;;;;;;;;;;23.40;99.90;;;;;;5072155;28;19915;-53
2022/10/24 05:55:30;;;;;;;;;;;23.40;99.90;;;;;;5072355;28;19935;-54
2022/10/24 05:57:55;;;;;;;;;;;23.40;99.90;;;;;;5072205;28;20356;-53
2022/10/24 06:00:21;;;;;;;;;;;23.30;99.90;;;;;;5071612;28;19921;-53
2022/10/24 06:02:46;;;;;;;;;;;23.30;99.90;;;;;;5071836;28;20336;-53
2022/10/24 06:05:12;;;;;;;;;;;23.30;99.90;;;;;;5072063;28;20384;-54
2022/10/24 06:07:38;;;;;;;;;;;23.30;99.90;;;;;;5072072;28;19909;-53
2022/10/24 06:10:05;;;;;;;;;;;23.30;99.90;;;;;;5071829;28;20415;-53
2022/10/24 06:12:31;;;;;;;;;;;23.30;99.90;;;;;;5072059;28;19908;-54
2022/10/24 06:14:58;;;;;;;;;;;23.30;99.90;;;;;;5072175;28;19951;-54
2022/10/24 06:17:23;;;;;;;;;;;23.30;99.90;;;;;;5071826;28;19917;-53
2022/10/24 06:19:49;;;;;;;;;;;23.20;99.90;;;;;;5071718;28;19939;-53
2022/10/24 06:22:15;;;;;;;;;;;23.20;99.90;;;;;;5071667;28;19932;-53
2022/10/24 06:24:41;;;;;;;;;;;23.20;99.90;;;;;;5071634;28;19909;-53
2022/10/24 06:27:06;;;;;;;;;;;23.20;99.90;;;;;;5071822;28;19916;-53
2022/10/24 06:29:32;;;;;;;;;;;23.20;99.90;;;;;;5071723;28;19909;-53
2022/10/24 06:31:58;;;;;;;;;;;23.20;99.90;;;;;;5070573;28;19915;-52
2022/10/24 06:34:23;;;;;;;;;;;23.20;99.90;;;;;;5070602;28;20375;-53
2022/10/24 06:36:49;;;;;;;;;;;23.20;99.90;;;;;;5070189;28;19908;-53
2022/10/24 06:39:15;;;;;;;;;;;23.20;99.90;;;;;;5071579;28;20430;-53
2022/10/24 06:41:40;;;;;;;;;;;23.20;99.90;;;;;;5071641;28;19915;-53
2022/10/24 06:44:06;;;;;;;;;;;23.20;99.90;;;;;;5071359;28;19948;-53
2022/10/24 06:46:31;;;;;;;;;;;23.20;99.90;;;;;;5072586;28;19912;-54
2022/10/24 06:48:57;;;;;;;;;;;23.20;99.90;;;;;;5075075;28;20368;-53
2022/10/24 06:51:23;;;;;;;;;;;23.20;99.90;;;;;;5075084;28;19913;-53
2022/10/24 06:53:48;;;;;;;;;;;23.20;99.90;;;;;;5075066;28;19916;-54
2022/10/24 06:56:16;;;;;;;;;;;23.20;99.90;;;;;;5075099;28;19909;-53
2022/10/24 06:58:42;;;;;;;;;;;23.20;99.90;;;;;;5074737;28;20406;-52
2022/10/24 07:01:09;;;;;;;;;;;23.20;99.90;;;;;;5074542;28;19924;-52
2022/10/24 07:03:34;;;;;;;;;;;23.30;99.90;;;;;;5074829;28;19915;-52
2022/10/24 07:06:12;;;;;;;;;;;23.30;99.90;;;;;;5074894;28;20272;-53
2022/10/24 07:08:38;;;;;;;;;;;23.30;99.90;;;;;;5074649;28;20044;-53
2022/10/24 07:11:04;;;;;;;;;;;23.30;99.90;;;;;;5074758;28;19991;-54
2022/10/24 07:13:29;;;;;;;;;;;23.30;99.90;;;;;;5074689;28;19908;-54
2022/10/24 07:15:55;;;;;;;;;;;23.30;99.90;;;;;;5074644;28;20265;-53
2022/10/24 07:18:20;;;;;;;;;;;23.30;99.90;;;;;;5074672;28;19920;-52
2022/10/24 07:20:46;;;;;;;;;;;23.30;99.90;;;;;;5074170;28;20372;-52
2022/10/24 07:23:12;;;;;;;;;;;23.30;99.90;;;;;;5074627;28;19927;-52
2022/10/24 07:25:38;;;;;;;;;;;23.30;99.90;;;;;;5074535;28;19912;-52
2022/10/24 07:28:04;;;;;;;;;;;23.40;99.90;;;;;;5074466;28;19962;-52
2022/10/24 07:30:29;;;;;;;;;;;23.40;99.90;;;;;;5074660;28;20339;-52
2022/10/24 07:32:55;;;;;;;;;;;23.40;99.90;;;;;;5073076;28;19912;-51
2022/10/24 07:35:22;;;;;;;;;;;23.40;99.90;;;;;;5072977;28;19908;-52
2022/10/24 07:37:48;;;;;;;;;;;23.50;99.90;;;;;;5074382;28;19908;-52
2022/10/24 07:40:14;;;;;;;;;;;23.50;99.90;;;;;;5073907;28;19924;-53
2022/10/24 07:42:39;;;;;;;;;;;23.50;99.90;;;;;;5074160;28;19954;-52
2022/10/24 07:45:06;;;;;;;;;;;23.50;99.90;;;;;;5074148;28;19961;-54
2022/10/24 07:47:31;;;;;;;;;;;23.50;99.90;;;;;;5074146;28;19912;-53
2022/10/24 07:49:57;;;;;;;;;;;23.60;99.90;;;;;;5073946;28;20320;-52
2022/10/24 07:52:23;;;;;;;;;;;23.60;99.90;;;;;;5073897;28;19909;-52
2022/10/24 07:54:48;;;;;;;;;;;23.60;99.90;;;;;;5073910;28;19909;-53
2022/10/24 07:57:14;;;;;;;;;;;23.70;99.90;;;;;;5073739;28;19913;-53
2022/10/24 07:59:39;;;;;;;;;;;23.70;99.90;;;;;;5073563;28;19974;-53
2022/10/24 08:02:05;;;;;;;;;;;23.70;99.90;;;;;;5073795;28;19954;-52
2022/10/24 08:04:31;;;;;;;;;;;23.80;99.90;;;;;;5073656;28;20285;-53
2022/10/24 08:06:56;;;;;;;;;;;23.90;99.90;;;;;;5074202;28;19919;-52
2022/10/24 08:09:22;;;;;;;;;;;23.90;99.90;;;;;;5073537;28;19909;-52
2022/10/24 08:11:47;;;;;;;;;;;23.90;99.90;;;;;;5073589;28;19908;-53
2022/10/24 08:14:13;;;;;;;;;;;23.90;99.90;;;;;;5073412;28;19909;-52
2022/10/24 08:16:40;;;;;;;;;;;24.00;99.90;;;;;;5073380;28;19908;-52
2022/10/24 08:19:07;;;;;;;;;;;24.10;99.90;;;;;;5072128;28;19919;-52
2022/10/24 08:21:33;;;;;;;;;;;24.10;99.90;;;;;;5073341;28;19913;-53
2022/10/24 08:23:59;;;;;;;;;;;24.10;99.90;;;;;;5073209;28;19908;-54
2022/10/24 08:26:25;;;;;;;;;;;24.20;99.90;;;;;;5073350;28;19939;-53
2022/10/24 08:28:52;;;;;;;;;;;24.20;99.90;;;;;;5071855;28;19915;-52
2022/10/24 08:31:19;;;;;;;;;;;24.30;99.90;;;;;;5073012;28;19923;-54
2022/10/24 08:33:44;;;;;;;;;;;24.30;99.90;;;;;;5073259;28;19909;-54
2022/10/24 08:36:18;;;;;;;;;;;24.30;99.90;;;;;;5073172;28;19916;-53
2022/10/24 08:38:43;;;;;;;;;;;24.30;99.90;;;;;;5072761;28;19977;-51
2022/10/24 08:41:13;;;;;;;;;;;24.40;99.90;;;;;;5073030;28;20433;-52
2022/10/24 08:43:38;;;;;;;;;;;24.40;99.90;;;;;;5072824;28;19912;-52
2022/10/24 08:46:19;;;;;;;;;;;24.50;99.90;;;;;;5073200;28;19919;-53
2022/10/24 08:48:50;;;;;;;;;;;24.50;99.90;;;;;;5072671;28;19915;-53
2022/10/24 08:51:35;;;;;;;;;;;24.50;99.90;;;;;;5072816;28;20260;-52
2022/10/24 08:54:02;;;;;;;;;;;24.60;99.90;;;;;;5071372;28;20031;-53
2022/10/24 08:56:28;;;;;;;;;;;24.70;99.90;;;;;;5071259;28;19954;-53
2022/10/24 08:58:54;;;;;;;;;;;24.70;99.90;;;;;;5071313;28;19908;-52
2022/10/24 09:01:40;;;;;;;;;;;24.70;99.90;;;;;;5072241;28;19943;-52
2022/10/24 09:04:08;;;;;;;;;;;24.70;99.90;;;;;;5072845;28;19959;-52
2022/10/24 09:06:34;;;;;;;;;;;24.80;99.90;;;;;;5072398;28;19931;-53
2022/10/24 09:08:59;;;;;;;;;;;24.80;99.90;;;;;;5072137;28;20321;-53
2022/10/24 09:11:29;;;;;;;;;;;24.90;99.90;;;;;;5072364;28;19915;-53
2022/10/24 09:13:55;;;;;;;;;;;24.90;99.90;;;;;;5072129;28;19915;-52
2022/10/24 09:16:22;;;;;;;;;;;25.00;99.90;;;;;;5072436;28;19916;-52
2022/10/24 09:18:50;;;;;;;;;;;25.00;99.90;;;;;;5072203;28;19916;-53
2022/10/24 09:21:16;;;;;;;;;;;25.00;99.90;;;;;;5071046;28;19920;-53
2022/10/24 09:23:42;;;;;;;;;;;25.00;99.90;;;;;;5072453;28;20015;-54
2022/10/24 09:26:14;;;;;;;;;;;25.10;99.90;;;;;;5072423;28;20330;-53
2022/10/24 09:28:40;;;;;;;;;;;25.10;99.90;;;;;;5072698;28;19948;-53
2022/10/24 09:31:16;;;;;;;;;;;25.20;99.90;;;;;;5072498;28;20390;-54
2022/10/24 09:33:43;;;;;;;;;;;25.30;99.90;;;;;;5072218;28;19915;-53
2022/10/24 09:36:10;;;;;;;;;;;25.30;99.90;;;;;;5072384;28;20383;-53
2022/10/24 09:38:36;;;;;;;;;;;25.30;99.90;;;;;;5071957;28;19908;-54
2022/10/24 09:41:04;;;;;;;;;;;25.30;99.90;;;;;;5072032;28;20000;-53
2022/10/24 09:43:32;;;;;;;;;;;25.40;99.90;;;;;;5072090;28;19915;-54
2022/10/24 09:45:58;;;;;;;;;;;25.40;99.90;;;;;;5072209;28;19915;-53
2022/10/24 09:48:23;;;;;;;;;;;25.50;99.90;;;;;;5072061;28;19908;-52
2022/10/24 09:50:50;;;;;;;;;;;25.50;99.90;;;;;;5071939;28;19909;-54
2022/10/24 09:53:25;;;;;;;;;;;25.50;99.90;;;;;;5072057;28;20280;-54
2022/10/24 09:55:56;;;;;;;;;;;25.60;99.90;;;;;;5071945;28;19915;-53
2022/10/24 09:58:28;;;;;;;;;;;25.60;99.90;;;;;;5072108;28;19909;-53
2022/10/24 10:00:59;;;;;;;;;;;25.70;99.90;;;;;;5071683;28;20518;-54
2022/10/24 10:03:25;;;;;;;;;;;25.70;99.90;;;;;;5071833;28;20292;-53
2022/10/24 10:05:53;;;;;;;;;;;25.70;99.90;;;;;;5071942;28;20082;-54
2022/10/24 10:08:21;;;;;;;;;;;25.70;99.90;;;;;;5071775;28;19912;-54
2022/10/24 10:11:00;;;;;;;;;;;25.80;99.90;;;;;;5071763;28;19954;-54
2022/10/24 10:13:27;;;;;;;;;;;25.80;99.90;;;;;;5071705;28;19904;-53
2022/10/24 10:15:59;;;;;;;;;;;25.80;99.90;;;;;;5071783;28;19908;-54
2022/10/24 10:18:27;;;;;;;;;;;25.90;99.90;;;;;;5071872;28;20357;-52
2022/10/24 10:20:58;;;;;;;;;;;25.90;99.90;;;;;;5071471;28;19924;-53
2022/10/24 10:23:30;;;;;;;;;;;26.00;99.90;;;;;;5075710;28;19908;-53
2022/10/24 10:26:16;;;;;;;;;;;26.00;99.90;;;;;;5074167;28;19908;-52
2022/10/24 10:28:46;;;;;;;;;;;26.10;99.90;;;;;;5075763;28;20276;-53
2022/10/24 10:31:12;;;;;;;;;;;26.10;99.90;;;;;;5075755;28;19994;-53
2022/10/24 10:33:47;;;;;;;;;;;26.20;99.90;;;;;;5075191;28;19982;-54
2022/10/24 10:36:12;;;;;;;;;;;26.20;99.90;;;;;;5075550;28;20005;-54
2022/10/24 10:38:38;;;;;;;;;;;26.30;99.90;;;;;;5073790;28;19909;-53
2022/10/24 10:41:22;;;;;;;;;;;26.30;99.90;;;;;;5075146;28;19920;-53
2022/10/24 10:43:53;;;;;;;;;;;26.40;99.90;;;;;;5075185;28;19909;-54
2022/10/24 10:46:24;;;;;;;;;;;26.40;99.90;;;;;;5075251;28;19912;-53
2022/10/24 10:48:49;;;;;;;;;;;26.50;99.90;;;;;;5075011;28;19916;-53
2022/10/24 10:51:15;;;;;;;;;;;26.50;99.90;;;;;;5075310;28;19908;-54
2022/10/24 10:53:59;;;;;;;;;;;26.60;99.90;;;;;;5075353;28;19961;-54
2022/10/24 10:56:41;;;;;;;;;;;26.60;99.90;;;;;;5073723;28;19908;-54
2022/10/24 10:59:17;;;;;;;;;;;26.60;99.90;;;;;;5074809;28;19923;-54
2022/10/24 11:01:48;;;;;;;;;;;26.70;99.90;;;;;;5074961;28;19920;-54
2022/10/24 11:04:16;;;;;;;;;;;26.70;99.90;;;;;;5075067;28;19954;-55
2022/10/24 11:07:00;;;;;;;;;;;26.70;99.90;;;;;;5074883;28;19931;-55
2022/10/24 11:09:26;;;;;;;;;;;26.80;99.90;;;;;;5074854;28;20003;-55
2022/10/24 11:11:54;;;;;;;;;;;26.80;99.90;;;;;;5074698;28;19960;-54
2022/10/24 11:14:28;;;;;;;;;;;26.80;99.90;;;;;;5074724;28;19951;-54
2022/10/24 11:16:56;;;;;;;;;;;26.90;99.90;;;;;;5074642;28;20264;-54
2022/10/24 11:19:28;;;;;;;;;;;26.90;99.90;;;;;;5074412;28;19970;-54
2022/10/24 11:21:58;;;;;;;;;;;27.00;99.90;;;;;;5074456;28;19942;-54
2022/10/24 11:24:24;;;;;;;;;;;27.00;99.90;;;;;;5073209;28;19995;-54
2022/10/24 11:27:16;;;;;;;;;;;27.10;99.90;;;;;;5074422;28;19963;-55
2022/10/24 11:29:52;;;;;;;;;;;27.10;99.90;;;;;;5073217;28;19908;-54
2022/10/24 11:32:21;;;;;;;;;;;27.20;99.90;;;;;;5073928;28;19962;-53
2022/10/24 11:34:59;;;;;;;;;;;27.20;99.90;;;;;;5074357;28;19912;-54
2022/10/24 11:37:39;;;;;;;;;;;27.20;99.90;;;;;;5074181;28;19936;-53
2022/10/24 11:40:11;;;;;;;;;;;27.30;99.90;;;;;;5072569;28;20367;-54
2022/10/24 11:42:42;;;;;;;;;;;27.30;99.90;;;;;;5074016;28;19908;-54
2022/10/24 11:45:12;;;;;;;;;;;27.40;99.90;;;;;;5073957;28;19962;-53
2022/10/24 11:47:57;;;;;;;;;;;27.40;99.90;;;;;;5074088;28;20334;-54
2022/10/24 11:50:41;;;;;;;;;;;27.40;99.90;;;;;;5073822;28;19913;-54
2022/10/24 11:53:19;;;;;;;;;;;27.40;99.90;;;;;;5074051;28;20310;-53
2022/10/24 11:55:56;;;;;;;;;;;27.50;99.90;;;;;;5072867;28;19912;-54
2022/10/24 11:58:24;;;;;;;;;;;27.50;99.90;;;;;;5074088;28;19908;-54
2022/10/24 12:00:56;;;;;;;;;;;27.60;99.90;;;;;;5073525;28;20015;-55
2022/10/24 12:03:30;;;;;;;;;;;27.60;99.90;;;;;;5073645;28;19916;-54
2022/10/24 12:06:15;;;;;;;;;;;27.70;99.90;;;;;;5072498;28;19999;-54
2022/10/24 12:08:55;;;;;;;;;;;27.70;99.90;;;;;;5073389;28;19915;-54
2022/10/24 12:11:21;;;;;;;;;;;27.80;99.90;;;;;;5073593;28;19909;-54
2022/10/24 12:14:12;;;;;;;;;;;27.80;99.90;;;;;;5072183;28;20329;-54
2022/10/24 12:16:43;;;;;;;;;;;27.90;99.90;;;;;;5073391;28;19948;-54
2022/10/24 12:19:13;;;;;;;;;;;27.90;99.90;;;;;;5073427;28;19938;-55
2022/10/24 12:21:43;;;;;;;;;;;27.90;99.90;;;;;;5073553;28;20000;-55
2022/10/24 12:24:19;;;;;;;;;;;28.00;99.90;;;;;;5073545;28;19912;-55
2022/10/24 12:26:53;;;;;;;;;;;28.10;99.90;;;;;;5073430;28;20308;-55
2022/10/24 12:29:23;;;;;;;;;;;28.10;99.90;;;;;;5072427;28;19909;-55
2022/10/24 12:31:50;;;;;;;;;;;28.20;99.90;;;;;;5073186;28;19909;-54
2022/10/24 12:34:15;;;;;;;;;;;28.20;99.90;;;;;;5073397;28;19916;-54
2022/10/24 12:37:00;;;;;;;;;;;28.20;99.90;;;;;;5073082;28;19909;-55
2022/10/24 12:39:29;;;;;;;;;;;28.20;99.90;;;;;;5073065;28;19920;-54
2022/10/24 12:41:55;;;;;;;;;;;28.30;99.90;;;;;;5073000;28;19919;-54
2022/10/24 12:44:24;;;;;;;;;;;28.30;99.90;;;;;;5072598;28;19919;-55
2022/10/24 12:46:49;;;;;;;;;;;28.30;99.90;;;;;;5073298;28;19959;-54
2022/10/24 12:49:25;;;;;;;;;;;28.40;99.90;;;;;;5072830;28;19967;-54
2022/10/24 12:51:50;;;;;;;;;;;28.40;99.90;;;;;;5073100;28;19915;-54
2022/10/24 12:54:17;;;;;;;;;;;28.50;99.90;;;;;;5072784;28;20292;-54
2022/10/24 12:56:48;;;;;;;;;;;28.50;99.90;;;;;;5072817;28;20325;-54
2022/10/24 12:59:32;;;;;;;;;;;28.60;99.90;;;;;;5072494;28;19913;-54
2022/10/24 13:02:10;;;;;;;;;;;28.60;99.90;;;;;;5072587;28;20019;-54
2022/10/24 13:04:41;;;;;;;;;;;28.60;99.90;;;;;;5072619;28;20311;-54
2022/10/24 13:07:26;;;;;;;;;;;28.60;99.90;;;;;;5072552;28;20390;-55
2022/10/24 13:09:57;;;;;;;;;;;28.70;99.90;;;;;;5072606;28;19948;-55
2022/10/24 13:12:41;;;;;;;;;;;28.70;99.90;;;;;;5071210;28;19964;-54
2022/10/24 13:15:20;;;;;;;;;;;28.70;99.90;;;;;;5072482;28;19915;-54
2022/10/24 13:18:09;;;;;;;;;;;28.80;99.90;;;;;;5068970;28;19939;-54
2022/10/24 13:20:39;;;;;;;;;;;28.80;99.90;;;;;;5030652;28;19974;-54
2022/10/24 13:23:12;;;;;;;;;;;28.90;99.90;;;;;;5069025;28;20000;-54
2022/10/24 13:25:38;;;;;;;;;;;28.90;99.90;;;;;;5071094;28;19908;-55
2022/10/24 13:28:15;;;;;;;;;;;29.00;99.90;;;;;;5071089;28;20327;-55
2022/10/24 13:30:41;;;;;;;;;;;29.00;99.90;;;;;;5065453;28;19970;-55
2022/10/24 13:33:25;;;;;;;;;;;29.10;99.90;;;;;;5052616;28;20364;-55
2022/10/24 13:35:52;;;;;;;;;;;29.20;99.90;;;;;;5051324;28;20283;-54
2022/10/24 13:38:17;;;;;;;;;;;29.30;99.90;;;;;;5065278;28;19909;-55
2022/10/24 13:40:43;;;;;;;;;;;29.40;99.90;;;;;;5057415;28;20015;-54
2022/10/24 13:43:18;;;;;;;;;;;29.40;99.90;;;;;;5058317;28;19939;-49
2022/10/24 13:45:47;;;;;;;;;;;29.50;99.90;;;;;;5059643;28;19917;-53
2022/10/24 13:48:16;;;;;;;;;;;29.50;99.90;;;;;;5062427;28;20714;-54
2022/10/24 13:50:48;;;;;;;;;;;29.60;99.90;;;;;;5055067;28;19919;-53
2022/10/24 13:53:17;;;;;;;;;;;29.60;99.90;;;;;;5064880;28;20623;-54
2022/10/24 13:55:46;;;;;;;;;;;29.60;99.90;;;;;;5061370;28;19909;-54
2022/10/24 13:58:15;;;;;;;;;;;29.60;99.90;;;;;;5070653;28;19913;-53
2022/10/24 14:00:45;;;;;;;;;;;29.60;99.90;;;;;;5071964;28;20015;-54
2022/10/24 14:03:15;;;;;;;;;;;29.70;99.90;;;;;;5071129;28;19916;-53
2022/10/24 14:06:02;;;;;;;;;;;29.70;99.90;;;;;;5073452;28;19913;-53
2022/10/24 14:08:32;;;;;;;;;;;29.70;99.90;;;;;;5071042;28;20257;-54
2022/10/24 14:10:59;;;;;;;;;;;29.70;99.90;;;;;;5065899;28;19917;-54
2022/10/24 14:13:25;;;;;;;;;;;29.70;99.90;;;;;;5071754;28;20269;-54
2022/10/24 14:15:56;;;;;;;;;;;29.70;99.90;;;;;;5073823;28;19970;-52
2022/10/24 14:18:22;;;;;;;;;;;29.80;99.90;;;;;;5066291;28;20545;-55
2022/10/24 14:20:52;;;;;;;;;;;29.80;99.90;;;;;;5072896;28;20428;-55
2022/10/24 14:23:28;;;;;;;;;;;29.90;99.90;;;;;;5070320;28;19921;-54
2022/10/24 14:25:56;;;;;;;;;;;29.90;99.90;;;;;;5070779;28;19916;-55